sensor_id;sensor_type;location;lat;lon;timestamp;temperature;humidity
6443;DHT22;3254;47.372;8.512;2023-08-06T00:00:06;13.90;66.10
6443;DHT22;3254;47.372;8.512;2023-08-06T00:02:32;13.80;72.70
6443;DHT22;3254;47.372;8.512;2023-08-06T00:04:57;13.80;50.80
6443;DHT22;3254;47.372;8.512;2023-08-06T00:07:23;13.80;61.70
6443;DHT22;3254;47.372;8.512;2023-08-06T00:09:49;13.90;50.50
6443;DHT22;3254;47.372;8.512;2023-08-06T00:12:15;13.90;48.60
6443;DHT22;3254;47.372;8.512;2023-08-06T00:14:41;13.90;37.30
6443;DHT22;3254;47.372;8.512;2023-08-06T00:17:10;13.90;35.10
6443;DHT22;3254;47.372;8.512;2023-08-06T00:19:37;13.90;31.10
6443;DHT22;3254;47.372;8.512;2023-08-06T00:22:06;14.00;23.00
6443;DHT22;3254;47.372;8.512;2023-08-06T00:24:33;14.30;17.60
6443;DHT22;3254;47.372;8.512;2023-08-06T00:27:01;14.40;12.90
6443;DHT22;3254;47.372;8.512;2023-08-06T00:29:26;14.40;10.20
6443;DHT22;3254;47.372;8.512;2023-08-06T00:31:54;14.30;10.00
6443;DHT22;3254;47.372;8.512;2023-08-06T00:34:21;14.40;1.00
6443;DHT22;3254;47.372;8.512;2023-08-06T00:36:46;14.50;1.00
6443;DHT22;3254;47.372;8.512;2023-08-06T00:39:12;14.40;1.00
6443;DHT22;3254;47.372;8.512;2023-08-06T00:41:38;14.30;1.00
6443;DHT22;3254;47.372;8.512;2023-08-06T00:44:03;14.20;1.00
6443;DHT22;3254;47.372;8.512;2023-08-06T00:46:30;14.30;1.00
6443;DHT22;3254;47.372;8.512;2023-08-06T00:48:56;14.40;1.00
6443;DHT22;3254;47.372;8.512;2023-08-06T00:51:22;14.50;1.00
6443;DHT22;3254;47.372;8.512;2023-08-06T00:53:49;14.50;1.00
6443;DHT22;3254;47.372;8.512;2023-08-06T00:56:15;14.50;1.00
6443;DHT22;3254;47.372;8.512;2023-08-06T00:58:42;14.50;1.00
6443;DHT22;3254;47.372;8.512;2023-08-06T01:01:08;14.60;1.00
6443;DHT22;3254;47.372;8.512;2023-08-06T01:03:44;14.70;1.00
6443;DHT22;3254;47.372;8.512;2023-08-06T01:06:10;14.70;1.00
6443;DHT22;3254;47.372;8.512;2023-08-06T01:08:58;14.50;1.00
6443;DHT22;3254;47.372;8.512;2023-08-06T01:11:38;14.50;1.00
6443;DHT22;3254;47.372;8.512;2023-08-06T01:14:18;14.70;1.00
6443;DHT22;3254;47.372;8.512;2023-08-06T01:16:50;14.80;1.00
6443;DHT22;3254;47.372;8.512;2023-08-06T01:19:19;14.80;1.00
6443;DHT22;3254;47.372;8.512;2023-08-06T01:21:45;15.00;1.00
6443;DHT22;3254;47.372;8.512;2023-08-06T01:24:11;15.00;1.00
6443;DHT22;3254;47.372;8.512;2023-08-06T01:30:09;15.10;1.00
6443;DHT22;3254;47.372;8.512;2023-08-06T01:32:39;15.10;1.00
6443;DHT22;3254;47.372;8.512;2023-08-06T01:35:11;15.10;1.00
6443;DHT22;3254;47.372;8.512;2023-08-06T01:37:38;15.10;1.00
6443;DHT22;3254;47.372;8.512;2023-08-06T01:40:10;15.20;1.00
6443;DHT22;3254;47.372;8.512;2023-08-06T01:42:37;15.30;1.00
6443;DHT22;3254;47.372;8.512;2023-08-06T01:45:03;15.30;1.00
6443;DHT22;3254;47.372;8.512;2023-08-06T01:47:28;15.20;1.00
6443;DHT22;3254;47.372;8.512;2023-08-06T01:49:54;15.10;1.00
6443;DHT22;3254;47.372;8.512;2023-08-06T01:52:21;15.00;1.00
6443;DHT22;3254;47.372;8.512;2023-08-06T01:54:47;14.90;1.00
6443;DHT22;3254;47.372;8.512;2023-08-06T01:57:13;14.70;1.00
6443;DHT22;3254;47.372;8.512;2023-08-06T01:59:39;14.80;1.00
6443;DHT22;3254;47.372;8.512;2023-08-06T02:02:06;14.80;1.00
6443;DHT22;3254;47.372;8.512;2023-08-06T02:04:31;14.90;1.00
6443;DHT22;3254;47.372;8.512;2023-08-06T02:06:57;14.90;1.00
6443;DHT22;3254;47.372;8.512;2023-08-06T02:09:23;14.80;1.00
6443;DHT22;3254;47.372;8.512;2023-08-06T02:11:48;14.80;1.00
6443;DHT22;3254;47.372;8.512;2023-08-06T02:14:14;14.60;1.00
6443;DHT22;3254;47.372;8.512;2023-08-06T02:16:39;14.70;1.00
6443;DHT22;3254;47.372;8.512;2023-08-06T02:19:05;14.70;1.00
6443;DHT22;3254;47.372;8.512;2023-08-06T02:21:32;14.80;1.00
6443;DHT22;3254;47.372;8.512;2023-08-06T02:23:57;14.70;1.00
6443;DHT22;3254;47.372;8.512;2023-08-06T02:26:23;14.60;1.00
6443;DHT22;3254;47.372;8.512;2023-08-06T02:28:48;14.50;1.00
6443;DHT22;3254;47.372;8.512;2023-08-06T02:31:14;14.60;1.00
6443;DHT22;3254;47.372;8.512;2023-08-06T02:33:42;14.80;1.00
6443;DHT22;3254;47.372;8.512;2023-08-06T02:36:11;14.90;1.00
6443;DHT22;3254;47.372;8.512;2023-08-06T02:38:36;15.00;1.00
6443;DHT22;3254;47.372;8.512;2023-08-06T02:41:03;15.10;1.00
6443;DHT22;3254;47.372;8.512;2023-08-06T02:43:29;15.00;1.00
6443;DHT22;3254;47.372;8.512;2023-08-06T02:45:58;15.00;1.00
6443;DHT22;3254;47.372;8.512;2023-08-06T02:48:26;15.20;1.00
6443;DHT22;3254;47.372;8.512;2023-08-06T02:50:56;15.10;1.00
6443;DHT22;3254;47.372;8.512;2023-08-06T02:53:22;15.00;1.00
6443;DHT22;3254;47.372;8.512;2023-08-06T02:55:48;14.90;1.00
6443;DHT22;3254;47.372;8.512;2023-08-06T02:58:14;15.00;1.00
6443;DHT22;3254;47.372;8.512;2023-08-06T03:00:40;14.90;1.00
6443;DHT22;3254;47.372;8.512;2023-08-06T03:03:05;14.90;1.00
6443;DHT22;3254;47.372;8.512;2023-08-06T03:05:31;15.00;1.00
6443;DHT22;3254;47.372;8.512;2023-08-06T03:07:56;15.00;1.00
6443;DHT22;3254;47.372;8.512;2023-08-06T03:10:22;15.10;1.00
6443;DHT22;3254;47.372;8.512;2023-08-06T03:12:49;15.30;1.00
6443;DHT22;3254;47.372;8.512;2023-08-06T03:15:14;15.20;1.00
6443;DHT22;3254;47.372;8.512;2023-08-06T03:17:40;15.20;1.00
6443;DHT22;3254;47.372;8.512;2023-08-06T03:20:06;14.90;1.00
6443;DHT22;3254;47.372;8.512;2023-08-06T03:22:32;14.30;1.00
6443;DHT22;3254;47.372;8.512;2023-08-06T03:24:57;13.80;1.00
6443;DHT22;3254;47.372;8.512;2023-08-06T03:27:24;13.80;1.00
6443;DHT22;3254;47.372;8.512;2023-08-06T03:29:50;13.60;1.00
6443;DHT22;3254;47.372;8.512;2023-08-06T03:32:15;13.70;1.00
6443;DHT22;3254;47.372;8.512;2023-08-06T03:34:41;13.80;1.00
6443;DHT22;3254;47.372;8.512;2023-08-06T03:37:07;14.00;1.00
6443;DHT22;3254;47.372;8.512;2023-08-06T03:39:32;14.00;1.00
6443;DHT22;3254;47.372;8.512;2023-08-06T03:41:58;13.90;1.00
6443;DHT22;3254;47.372;8.512;2023-08-06T03:44:23;13.90;1.00
6443;DHT22;3254;47.372;8.512;2023-08-06T03:46:50;13.90;1.00
6443;DHT22;3254;47.372;8.512;2023-08-06T03:49:16;14.00;1.00
6443;DHT22;3254;47.372;8.512;2023-08-06T03:51:42;14.00;1.00
6443;DHT22;3254;47.372;8.512;2023-08-06T03:54:07;14.00;1.00
6443;DHT22;3254;47.372;8.512;2023-08-06T03:56:33;14.10;1.00
6443;DHT22;3254;47.372;8.512;2023-08-06T03:58:58;14.10;1.00
6443;DHT22;3254;47.372;8.512;2023-08-06T04:01:24;14.10;1.00
6443;DHT22;3254;47.372;8.512;2023-08-06T04:03:49;14.10;1.00
6443;DHT22;3254;47.372;8.512;2023-08-06T04:06:15;14.20;1.00
6443;DHT22;3254;47.372;8.512;2023-08-06T04:08:41;14.20;1.00
6443;DHT22;3254;47.372;8.512;2023-08-06T04:11:07;14.20;1.00
6443;DHT22;3254;47.372;8.512;2023-08-06T04:13:34;14.20;1.00
6443;DHT22;3254;47.372;8.512;2023-08-06T04:16:02;14.30;1.00
6443;DHT22;3254;47.372;8.512;2023-08-06T04:18:29;14.30;1.00
6443;DHT22;3254;47.372;8.512;2023-08-06T04:20:54;14.40;1.00
6443;DHT22;3254;47.372;8.512;2023-08-06T04:23:21;14.40;1.00
6443;DHT22;3254;47.372;8.512;2023-08-06T04:25:46;13.90;1.00
6443;DHT22;3254;47.372;8.512;2023-08-06T04:28:13;13.60;1.00
6443;DHT22;3254;47.372;8.512;2023-08-06T04:30:38;13.60;1.00
6443;DHT22;3254;47.372;8.512;2023-08-06T04:33:04;13.70;1.00
6443;DHT22;3254;47.372;8.512;2023-08-06T04:35:30;13.80;1.00
6443;DHT22;3254;47.372;8.512;2023-08-06T04:37:55;13.70;1.00
6443;DHT22;3254;47.372;8.512;2023-08-06T04:40:21;13.60;1.00
6443;DHT22;3254;47.372;8.512;2023-08-06T04:42:46;13.30;1.00
6443;DHT22;3254;47.372;8.512;2023-08-06T04:45:12;13.20;1.00
6443;DHT22;3254;47.372;8.512;2023-08-06T04:47:38;13.00;1.00
6443;DHT22;3254;47.372;8.512;2023-08-06T04:50:03;12.90;1.00
6443;DHT22;3254;47.372;8.512;2023-08-06T04:52:29;12.80;1.00
6443;DHT22;3254;47.372;8.512;2023-08-06T04:54:57;12.80;1.00
6443;DHT22;3254;47.372;8.512;2023-08-06T04:57:23;12.70;1.00
6443;DHT22;3254;47.372;8.512;2023-08-06T04:59:48;12.70;1.00
6443;DHT22;3254;47.372;8.512;2023-08-06T05:02:14;12.70;1.00
6443;DHT22;3254;47.372;8.512;2023-08-06T05:04:39;12.70;1.00
6443;DHT22;3254;47.372;8.512;2023-08-06T05:07:05;12.70;1.00
6443;DHT22;3254;47.372;8.512;2023-08-06T05:09:32;12.70;1.00
6443;DHT22;3254;47.372;8.512;2023-08-06T05:12:00;12.60;1.00
6443;DHT22;3254;47.372;8.512;2023-08-06T05:14:25;12.60;1.00
6443;DHT22;3254;47.372;8.512;2023-08-06T05:16:51;12.40;1.00
6443;DHT22;3254;47.372;8.512;2023-08-06T05:19:18;12.20;1.50
6443;DHT22;3254;47.372;8.512;2023-08-06T05:21:43;12.20;11.00
6443;DHT22;3254;47.372;8.512;2023-08-06T05:24:09;12.20;15.10
6443;DHT22;3254;47.372;8.512;2023-08-06T05:26:36;12.00;35.10
6443;DHT22;3254;47.372;8.512;2023-08-06T05:29:01;11.80;52.60
6443;DHT22;3254;47.372;8.512;2023-08-06T05:31:27;11.70;66.40
6443;DHT22;3254;47.372;8.512;2023-08-06T05:33:54;11.60;86.90
6443;DHT22;3254;47.372;8.512;2023-08-06T05:36:20;11.70;94.20
6443;DHT22;3254;47.372;8.512;2023-08-06T05:38:47;11.70;96.50
6443;DHT22;3254;47.372;8.512;2023-08-06T05:41:13;11.70;95.70
6443;DHT22;3254;47.372;8.512;2023-08-06T05:43:38;11.70;92.90
6443;DHT22;3254;47.372;8.512;2023-08-06T05:46:04;11.80;84.90
6443;DHT22;3254;47.372;8.512;2023-08-06T05:48:30;11.80;82.50
6443;DHT22;3254;47.372;8.512;2023-08-06T05:50:56;11.90;66.30
6443;DHT22;3254;47.372;8.512;2023-08-06T05:53:21;12.10;51.60
6443;DHT22;3254;47.372;8.512;2023-08-06T05:55:48;12.20;40.50
6443;DHT22;3254;47.372;8.512;2023-08-06T05:58:15;12.30;35.80
6443;DHT22;3254;47.372;8.512;2023-08-06T06:00:41;12.40;33.20
6443;DHT22;3254;47.372;8.512;2023-08-06T06:03:07;12.60;22.00
6443;DHT22;3254;47.372;8.512;2023-08-06T06:05:33;12.70;15.10
6443;DHT22;3254;47.372;8.512;2023-08-06T06:07:58;12.90;15.50
6443;DHT22;3254;47.372;8.512;2023-08-06T06:10:24;13.10;1.50
6443;DHT22;3254;47.372;8.512;2023-08-06T06:12:51;13.00;1.00
6443;DHT22;3254;47.372;8.512;2023-08-06T06:15:16;13.00;1.00
6443;DHT22;3254;47.372;8.512;2023-08-06T06:17:42;12.90;1.00
6443;DHT22;3254;47.372;8.512;2023-08-06T06:20:09;13.00;1.00
6443;DHT22;3254;47.372;8.512;2023-08-06T06:22:34;13.00;1.00
6443;DHT22;3254;47.372;8.512;2023-08-06T06:25:00;13.10;1.00
6443;DHT22;3254;47.372;8.512;2023-08-06T06:27:26;13.10;1.00
6443;DHT22;3254;47.372;8.512;2023-08-06T06:29:52;13.30;1.00
6443;DHT22;3254;47.372;8.512;2023-08-06T06:32:20;13.50;1.00
6443;DHT22;3254;47.372;8.512;2023-08-06T06:34:45;13.50;1.00
6443;DHT22;3254;47.372;8.512;2023-08-06T06:37:15;13.70;1.00
6443;DHT22;3254;47.372;8.512;2023-08-06T06:39:42;13.80;1.00
6443;DHT22;3254;47.372;8.512;2023-08-06T06:42:07;13.90;1.00
6443;DHT22;3254;47.372;8.512;2023-08-06T06:44:34;14.10;1.00
6443;DHT22;3254;47.372;8.512;2023-08-06T06:46:59;14.30;1.00
6443;DHT22;3254;47.372;8.512;2023-08-06T06:49:25;14.60;1.00
6443;DHT22;3254;47.372;8.512;2023-08-06T06:51:51;15.00;1.00
6443;DHT22;3254;47.372;8.512;2023-08-06T06:54:16;15.20;1.00
6443;DHT22;3254;47.372;8.512;2023-08-06T06:56:42;15.50;1.00
6443;DHT22;3254;47.372;8.512;2023-08-06T06:59:09;15.60;1.00
6443;DHT22;3254;47.372;8.512;2023-08-06T07:01:36;15.50;1.00
6443;DHT22;3254;47.372;8.512;2023-08-06T07:04:01;15.40;1.00
6443;DHT22;3254;47.372;8.512;2023-08-06T07:06:30;15.20;1.00
6443;DHT22;3254;47.372;8.512;2023-08-06T07:08:56;15.20;1.00
6443;DHT22;3254;47.372;8.512;2023-08-06T07:11:21;14.60;1.00
6443;DHT22;3254;47.372;8.512;2023-08-06T07:13:49;14.10;1.00
6443;DHT22;3254;47.372;8.512;2023-08-06T07:16:15;12.80;1.00
6443;DHT22;3254;47.372;8.512;2023-08-06T07:18:40;12.50;1.00
6443;DHT22;3254;47.372;8.512;2023-08-06T07:21:06;12.80;1.00
6443;DHT22;3254;47.372;8.512;2023-08-06T07:23:33;13.00;1.00
6443;DHT22;3254;47.372;8.512;2023-08-06T07:25:59;13.30;1.00
6443;DHT22;3254;47.372;8.512;2023-08-06T07:28:24;13.60;1.00
6443;DHT22;3254;47.372;8.512;2023-08-06T07:30:50;13.70;1.00
6443;DHT22;3254;47.372;8.512;2023-08-06T07:33:15;13.80;1.00
6443;DHT22;3254;47.372;8.512;2023-08-06T07:35:43;13.90;1.00
6443;DHT22;3254;47.372;8.512;2023-08-06T07:38:09;13.90;1.00
6443;DHT22;3254;47.372;8.512;2023-08-06T07:40:36;14.00;1.00
6443;DHT22;3254;47.372;8.512;2023-08-06T07:43:03;13.90;1.00
6443;DHT22;3254;47.372;8.512;2023-08-06T07:45:33;13.90;1.00
6443;DHT22;3254;47.372;8.512;2023-08-06T07:47:59;14.00;1.00
6443;DHT22;3254;47.372;8.512;2023-08-06T07:50:25;13.80;1.00
6443;DHT22;3254;47.372;8.512;2023-08-06T07:52:50;13.50;1.00
6443;DHT22;3254;47.372;8.512;2023-08-06T07:55:16;13.40;1.00
6443;DHT22;3254;47.372;8.512;2023-08-06T07:57:41;13.10;1.00
6443;DHT22;3254;47.372;8.512;2023-08-06T08:00:08;12.60;1.00
6443;DHT22;3254;47.372;8.512;2023-08-06T08:02:35;12.10;18.20
6443;DHT22;3254;47.372;8.512;2023-08-06T08:05:00;12.00;50.00
6443;DHT22;3254;47.372;8.512;2023-08-06T08:07:26;11.80;57.70
6443;DHT22;3254;47.372;8.512;2023-08-06T08:09:54;11.90;63.80
6443;DHT22;3254;47.372;8.512;2023-08-06T08:12:21;12.00;93.50
6443;DHT22;3254;47.372;8.512;2023-08-06T08:14:47;11.90;99.90
6443;DHT22;3254;47.372;8.512;2023-08-06T08:17:13;11.80;98.20
6443;DHT22;3254;47.372;8.512;2023-08-06T08:19:40;11.60;99.90
6443;DHT22;3254;47.372;8.512;2023-08-06T08:22:06;11.60;99.90
6443;DHT22;3254;47.372;8.512;2023-08-06T08:24:32;11.50;99.90
6443;DHT22;3254;47.372;8.512;2023-08-06T08:26:57;11.50;99.90
6443;DHT22;3254;47.372;8.512;2023-08-06T08:29:23;11.60;99.90
6443;DHT22;3254;47.372;8.512;2023-08-06T08:31:49;11.70;99.90
6443;DHT22;3254;47.372;8.512;2023-08-06T08:34:16;11.70;99.90
6443;DHT22;3254;47.372;8.512;2023-08-06T08:36:43;11.70;99.90
6443;DHT22;3254;47.372;8.512;2023-08-06T08:39:12;11.80;99.90
6443;DHT22;3254;47.372;8.512;2023-08-06T08:41:39;11.70;99.90
6443;DHT22;3254;47.372;8.512;2023-08-06T08:44:08;11.70;99.90
6443;DHT22;3254;47.372;8.512;2023-08-06T08:46:38;11.60;99.90
6443;DHT22;3254;47.372;8.512;2023-08-06T08:49:04;11.60;99.90
6443;DHT22;3254;47.372;8.512;2023-08-06T08:51:30;11.80;99.90
6443;DHT22;3254;47.372;8.512;2023-08-06T08:53:57;11.70;99.90
6443;DHT22;3254;47.372;8.512;2023-08-06T08:56:23;11.70;99.90
6443;DHT22;3254;47.372;8.512;2023-08-06T08:58:49;11.70;99.90
6443;DHT22;3254;47.372;8.512;2023-08-06T09:01:16;11.80;99.90
6443;DHT22;3254;47.372;8.512;2023-08-06T09:03:43;12.00;99.90
6443;DHT22;3254;47.372;8.512;2023-08-06T09:06:11;12.00;99.90
6443;DHT22;3254;47.372;8.512;2023-08-06T09:08:43;12.20;99.90
6443;DHT22;3254;47.372;8.512;2023-08-06T09:11:13;12.20;99.90
6443;DHT22;3254;47.372;8.512;2023-08-06T09:13:43;12.30;99.90
6443;DHT22;3254;47.372;8.512;2023-08-06T09:16:14;12.50;99.90
6443;DHT22;3254;47.372;8.512;2023-08-06T09:18:43;12.30;99.90
6443;DHT22;3254;47.372;8.512;2023-08-06T09:21:14;12.40;99.90
6443;DHT22;3254;47.372;8.512;2023-08-06T09:23:43;12.50;99.90
6443;DHT22;3254;47.372;8.512;2023-08-06T09:26:13;12.60;99.90
6443;DHT22;3254;47.372;8.512;2023-08-06T09:28:41;12.70;99.90
6443;DHT22;3254;47.372;8.512;2023-08-06T09:31:09;12.70;99.90
6443;DHT22;3254;47.372;8.512;2023-08-06T09:33:38;13.00;99.90
6443;DHT22;3254;47.372;8.512;2023-08-06T09:36:08;13.40;99.90
6443;DHT22;3254;47.372;8.512;2023-08-06T09:38:40;13.30;60.80
6443;DHT22;3254;47.372;8.512;2023-08-06T09:41:06;13.20;83.00
6443;DHT22;3254;47.372;8.512;2023-08-06T09:43:44;14.00;96.80
6443;DHT22;3254;47.372;8.512;2023-08-06T09:46:14;14.00;50.10
6443;DHT22;3254;47.372;8.512;2023-08-06T09:48:45;14.50;37.20
6443;DHT22;3254;47.372;8.512;2023-08-06T09:51:13;15.60;25.60
6443;DHT22;3254;47.372;8.512;2023-08-06T09:53:40;16.00;3.40
6443;DHT22;3254;47.372;8.512;2023-08-06T09:56:06;16.40;1.00
6443;DHT22;3254;47.372;8.512;2023-08-06T09:58:32;15.20;1.00
6443;DHT22;3254;47.372;8.512;2023-08-06T10:00:59;15.00;1.00
6443;DHT22;3254;47.372;8.512;2023-08-06T10:03:25;14.10;11.80
6443;DHT22;3254;47.372;8.512;2023-08-06T10:05:51;13.90;28.90
6443;DHT22;3254;47.372;8.512;2023-08-06T10:08:17;13.50;28.50
6443;DHT22;3254;47.372;8.512;2023-08-06T10:10:43;13.20;32.90
6443;DHT22;3254;47.372;8.512;2023-08-06T10:13:13;13.00;38.20
6443;DHT22;3254;47.372;8.512;2023-08-06T10:15:40;12.90;46.60
6443;DHT22;3254;47.372;8.512;2023-08-06T10:18:06;12.80;67.60
6443;DHT22;3254;47.372;8.512;2023-08-06T10:20:36;12.70;72.20
6443;DHT22;3254;47.372;8.512;2023-08-06T10:23:03;12.60;99.90
6443;DHT22;3254;47.372;8.512;2023-08-06T10:25:34;12.40;97.60
6443;DHT22;3254;47.372;8.512;2023-08-06T10:28:00;12.40;96.70
6443;DHT22;3254;47.372;8.512;2023-08-06T10:30:32;12.30;89.60
6443;DHT22;3254;47.372;8.512;2023-08-06T10:33:03;12.40;88.90
6443;DHT22;3254;47.372;8.512;2023-08-06T10:35:48;12.50;86.80
6443;DHT22;3254;47.372;8.512;2023-08-06T10:38:22;12.60;81.40
6443;DHT22;3254;47.372;8.512;2023-08-06T10:40:50;12.90;78.90
6443;DHT22;3254;47.372;8.512;2023-08-06T10:46:44;13.10;64.50
6443;DHT22;3254;47.372;8.512;2023-08-06T10:49:17;13.20;62.80
6443;DHT22;3254;47.372;8.512;2023-08-06T10:51:47;12.80;57.70
6443;DHT22;3254;47.372;8.512;2023-08-06T10:54:13;12.90;71.30
6443;DHT22;3254;47.372;8.512;2023-08-06T10:56:42;13.00;80.40
6443;DHT22;3254;47.372;8.512;2023-08-06T10:59:07;12.80;67.60
6443;DHT22;3254;47.372;8.512;2023-08-06T11:01:35;12.90;54.00
6443;DHT22;3254;47.372;8.512;2023-08-06T11:04:02;13.00;53.50
6443;DHT22;3254;47.372;8.512;2023-08-06T11:06:28;13.20;50.30
6443;DHT22;3254;47.372;8.512;2023-08-06T11:08:54;13.10;39.40
6443;DHT22;3254;47.372;8.512;2023-08-06T11:11:22;13.20;42.10
6443;DHT22;3254;47.372;8.512;2023-08-06T11:13:49;13.10;40.50
6443;DHT22;3254;47.372;8.512;2023-08-06T11:16:20;13.10;42.30
6443;DHT22;3254;47.372;8.512;2023-08-06T11:18:46;13.00;37.30
6443;DHT22;3254;47.372;8.512;2023-08-06T11:21:12;13.20;39.30
6443;DHT22;3254;47.372;8.512;2023-08-06T11:23:40;13.40;45.10
6443;DHT22;3254;47.372;8.512;2023-08-06T11:26:06;13.40;36.00
6443;DHT22;3254;47.372;8.512;2023-08-06T11:28:32;13.50;30.10
6443;DHT22;3254;47.372;8.512;2023-08-06T11:30:58;13.60;37.90
6443;DHT22;3254;47.372;8.512;2023-08-06T11:33:28;13.60;35.70
6443;DHT22;3254;47.372;8.512;2023-08-06T11:35:58;13.20;47.90
6443;DHT22;3254;47.372;8.512;2023-08-06T11:38:28;13.20;67.30
6443;DHT22;3254;47.372;8.512;2023-08-06T11:40:54;13.00;91.20
6443;DHT22;3254;47.372;8.512;2023-08-06T11:43:21;13.10;81.00
6443;DHT22;3254;47.372;8.512;2023-08-06T11:45:48;12.90;94.30
6443;DHT22;3254;47.372;8.512;2023-08-06T11:48:16;13.10;99.90
6443;DHT22;3254;47.372;8.512;2023-08-06T11:50:42;13.00;98.20
6443;DHT22;3254;47.372;8.512;2023-08-06T11:53:14;13.00;93.10
6443;DHT22;3254;47.372;8.512;2023-08-06T11:55:56;13.00;97.20
6443;DHT22;3254;47.372;8.512;2023-08-06T11:58:21;12.90;82.60
6443;DHT22;3254;47.372;8.512;2023-08-06T12:00:48;12.90;91.80
6443;DHT22;3254;47.372;8.512;2023-08-06T12:03:14;13.00;89.50
6443;DHT22;3254;47.372;8.512;2023-08-06T12:05:41;13.00;67.10
6443;DHT22;3254;47.372;8.512;2023-08-06T12:08:09;13.10;60.00
6443;DHT22;3254;47.372;8.512;2023-08-06T12:10:34;13.20;64.70
6443;DHT22;3254;47.372;8.512;2023-08-06T12:13:00;13.40;56.80
6443;DHT22;3254;47.372;8.512;2023-08-06T12:15:26;13.40;42.00
6443;DHT22;3254;47.372;8.512;2023-08-06T12:17:52;13.50;45.40
6443;DHT22;3254;47.372;8.512;2023-08-06T12:20:17;13.60;37.90
6443;DHT22;3254;47.372;8.512;2023-08-06T12:22:43;13.30;44.20
6443;DHT22;3254;47.372;8.512;2023-08-06T12:25:11;13.40;37.70
6443;DHT22;3254;47.372;8.512;2023-08-06T12:27:39;13.40;38.10
6443;DHT22;3254;47.372;8.512;2023-08-06T12:30:06;13.60;21.00
6443;DHT22;3254;47.372;8.512;2023-08-06T12:32:32;13.60;25.90
6443;DHT22;3254;47.372;8.512;2023-08-06T12:35:00;13.80;16.50
6443;DHT22;3254;47.372;8.512;2023-08-06T12:37:27;13.70;3.70
6443;DHT22;3254;47.372;8.512;2023-08-06T12:39:53;14.00;3.10
6443;DHT22;3254;47.372;8.512;2023-08-06T12:42:18;14.00;1.80
6443;DHT22;3254;47.372;8.512;2023-08-06T12:44:45;13.90;5.70
6443;DHT22;3254;47.372;8.512;2023-08-06T12:47:11;14.00;10.70
6443;DHT22;3254;47.372;8.512;2023-08-06T12:49:36;14.30;2.20
6443;DHT22;3254;47.372;8.512;2023-08-06T12:52:03;14.40;1.00
6443;DHT22;3254;47.372;8.512;2023-08-06T12:54:32;14.20;1.00
6443;DHT22;3254;47.372;8.512;2023-08-06T12:57:02;14.10;1.00
6443;DHT22;3254;47.372;8.512;2023-08-06T12:59:28;14.20;1.00
6443;DHT22;3254;47.372;8.512;2023-08-06T13:01:54;14.20;1.00
6443;DHT22;3254;47.372;8.512;2023-08-06T13:04:20;14.40;1.00
6443;DHT22;3254;47.372;8.512;2023-08-06T13:06:46;14.40;1.00
6443;DHT22;3254;47.372;8.512;2023-08-06T13:09:12;14.60;1.00
6443;DHT22;3254;47.372;8.512;2023-08-06T13:11:39;14.80;1.00
6443;DHT22;3254;47.372;8.512;2023-08-06T13:14:10;14.80;1.00
6443;DHT22;3254;47.372;8.512;2023-08-06T13:16:37;14.80;1.00
6443;DHT22;3254;47.372;8.512;2023-08-06T13:19:04;14.60;1.00
6443;DHT22;3254;47.372;8.512;2023-08-06T13:22:00;14.20;1.00
6443;DHT22;3254;47.372;8.512;2023-08-06T13:24:27;14.20;1.00
6443;DHT22;3254;47.372;8.512;2023-08-06T13:26:53;14.60;1.00
6443;DHT22;3254;47.372;8.512;2023-08-06T13:29:21;15.10;1.00
6443;DHT22;3254;47.372;8.512;2023-08-06T13:31:46;15.70;1.00
6443;DHT22;3254;47.372;8.512;2023-08-06T13:34:12;15.50;1.00
6443;DHT22;3254;47.372;8.512;2023-08-06T13:36:38;15.40;1.00
6443;DHT22;3254;47.372;8.512;2023-08-06T13:39:04;16.20;1.00
6443;DHT22;3254;47.372;8.512;2023-08-06T13:41:30;16.50;1.00
6443;DHT22;3254;47.372;8.512;2023-08-06T13:43:56;16.70;1.00
6443;DHT22;3254;47.372;8.512;2023-08-06T13:46:21;16.40;1.00
6443;DHT22;3254;47.372;8.512;2023-08-06T13:48:48;16.70;1.00
6443;DHT22;3254;47.372;8.512;2023-08-06T13:51:17;17.00;1.00
6443;DHT22;3254;47.372;8.512;2023-08-06T13:53:49;17.00;1.00
6443;DHT22;3254;47.372;8.512;2023-08-06T13:56:15;16.90;1.00
6443;DHT22;3254;47.372;8.512;2023-08-06T13:58:43;16.60;1.00
6443;DHT22;3254;47.372;8.512;2023-08-06T14:01:10;16.60;1.00
6443;DHT22;3254;47.372;8.512;2023-08-06T14:03:35;16.40;1.00
6443;DHT22;3254;47.372;8.512;2023-08-06T14:06:01;16.00;1.00
6443;DHT22;3254;47.372;8.512;2023-08-06T14:08:27;15.60;1.00
6443;DHT22;3254;47.372;8.512;2023-08-06T14:10:53;16.20;1.00
6443;DHT22;3254;47.372;8.512;2023-08-06T14:13:18;16.50;1.00
6443;DHT22;3254;47.372;8.512;2023-08-06T14:15:45;16.50;1.00
6443;DHT22;3254;47.372;8.512;2023-08-06T14:18:16;16.50;1.00
6443;DHT22;3254;47.372;8.512;2023-08-06T14:20:43;16.30;1.00
6443;DHT22;3254;47.372;8.512;2023-08-06T14:23:11;16.00;1.00
6443;DHT22;3254;47.372;8.512;2023-08-06T14:25:38;16.00;1.00
6443;DHT22;3254;47.372;8.512;2023-08-06T14:28:04;16.20;1.00
6443;DHT22;3254;47.372;8.512;2023-08-06T14:30:31;16.50;1.00
6443;DHT22;3254;47.372;8.512;2023-08-06T14:32:57;17.10;1.00
6443;DHT22;3254;47.372;8.512;2023-08-06T14:35:25;17.00;1.00
6443;DHT22;3254;47.372;8.512;2023-08-06T14:37:51;16.80;1.00
6443;DHT22;3254;47.372;8.512;2023-08-06T14:40:17;16.80;1.00
6443;DHT22;3254;47.372;8.512;2023-08-06T14:42:43;16.90;1.00
6443;DHT22;3254;47.372;8.512;2023-08-06T14:45:08;17.10;1.00
6443;DHT22;3254;47.372;8.512;2023-08-06T14:47:34;17.10;1.00
6443;DHT22;3254;47.372;8.512;2023-08-06T14:50:00;17.10;1.00
6443;DHT22;3254;47.372;8.512;2023-08-06T14:52:26;17.00;1.00
6443;DHT22;3254;47.372;8.512;2023-08-06T14:54:51;16.70;1.00
6443;DHT22;3254;47.372;8.512;2023-08-06T14:57:18;16.50;1.00
6443;DHT22;3254;47.372;8.512;2023-08-06T14:59:43;16.40;1.00
6443;DHT22;3254;47.372;8.512;2023-08-06T15:02:10;16.40;1.00
6443;DHT22;3254;47.372;8.512;2023-08-06T15:04:35;16.40;1.00
6443;DHT22;3254;47.372;8.512;2023-08-06T15:07:01;16.50;1.00
6443;DHT22;3254;47.372;8.512;2023-08-06T15:09:26;16.50;1.00
6443;DHT22;3254;47.372;8.512;2023-08-06T15:11:52;17.20;1.00
6443;DHT22;3254;47.372;8.512;2023-08-06T15:14:19;17.30;1.00
6443;DHT22;3254;47.372;8.512;2023-08-06T15:16:46;17.20;1.00
6443;DHT22;3254;47.372;8.512;2023-08-06T15:19:12;17.20;1.00
6443;DHT22;3254;47.372;8.512;2023-08-06T15:21:38;17.30;1.00
6443;DHT22;3254;47.372;8.512;2023-08-06T15:24:03;17.00;1.00
6443;DHT22;3254;47.372;8.512;2023-08-06T15:26:29;16.70;1.00
6443;DHT22;3254;47.372;8.512;2023-08-06T15:28:54;16.40;1.00
6443;DHT22;3254;47.372;8.512;2023-08-06T15:31:22;16.10;1.00
6443;DHT22;3254;47.372;8.512;2023-08-06T15:33:55;15.80;1.00
6443;DHT22;3254;47.372;8.512;2023-08-06T15:36:20;15.20;1.00
6443;DHT22;3254;47.372;8.512;2023-08-06T15:38:49;14.90;1.00
6443;DHT22;3254;47.372;8.512;2023-08-06T15:41:14;14.90;1.00
6443;DHT22;3254;47.372;8.512;2023-08-06T15:43:42;14.90;1.00
6443;DHT22;3254;47.372;8.512;2023-08-06T15:46:08;15.10;1.00
6443;DHT22;3254;47.372;8.512;2023-08-06T15:48:34;15.30;1.00
6443;DHT22;3254;47.372;8.512;2023-08-06T15:50:59;15.50;1.00
6443;DHT22;3254;47.372;8.512;2023-08-06T15:53:25;15.80;1.00
6443;DHT22;3254;47.372;8.512;2023-08-06T15:55:51;16.50;1.00
6443;DHT22;3254;47.372;8.512;2023-08-06T15:58:16;18.50;1.00
6443;DHT22;3254;47.372;8.512;2023-08-06T16:00:43;19.80;1.00
6443;DHT22;3254;47.372;8.512;2023-08-06T16:03:09;19.40;1.00
6443;DHT22;3254;47.372;8.512;2023-08-06T16:05:35;18.90;1.00
6443;DHT22;3254;47.372;8.512;2023-08-06T16:08:01;18.50;1.00
6443;DHT22;3254;47.372;8.512;2023-08-06T16:10:27;17.90;1.00
6443;DHT22;3254;47.372;8.512;2023-08-06T16:12:54;17.90;1.00
6443;DHT22;3254;47.372;8.512;2023-08-06T16:15:21;19.40;1.00